createdAt,value
2018-08-11T00:01:28.243Z,75.40
2018-08-11T00:04:16.451Z,75.00
2018-08-11T00:06:57.584Z,74.00
2018-08-11T00:09:40.200Z,77.10
2018-08-11T00:12:18.561Z,86.90
2018-08-11T00:15:00.765Z,84.60
2018-08-11T00:17:55.499Z,84.30
2018-08-11T00:20:39.696Z,90.20
2018-08-11T00:23:12.243Z,94.00
2018-08-11T00:26:04.838Z,99.90
2018-08-11T00:28:57.473Z,99.90
2018-08-11T00:31:34.972Z,99.90
2018-08-11T00:34:16.736Z,99.90
2018-08-11T00:36:51.231Z,99.90
2018-08-11T00:42:08.096Z,99.90
2018-08-11T00:44:53.811Z,99.90
2018-08-11T00:47:40.399Z,99.90
2018-08-11T00:50:39.004Z,99.90
2018-08-11T00:53:21.247Z,99.90
2018-08-11T00:56:04.610Z,99.90
2018-08-11T00:58:50.886Z,99.90
2018-08-11T01:01:30.328Z,99.90
2018-08-11T01:04:09.986Z,99.90
2018-08-11T01:06:41.851Z,99.90
2018-08-11T01:09:15.339Z,99.90
2018-08-11T01:11:51.118Z,99.90
2018-08-11T01:14:27.365Z,99.90
2018-08-11T01:17:00.297Z,99.90
2018-08-11T01:19:33.604Z,99.90
2018-08-11T01:22:08.467Z,99.90
2018-08-11T01:24:40.469Z,99.90
2018-08-11T01:27:10.949Z,99.90
2018-08-11T01:29:42.145Z,99.90
2018-08-11T01:32:13.033Z,99.90
2018-08-11T01:34:44.415Z,99.90
2018-08-11T01:37:15.918Z,99.90
2018-08-11T01:39:56.191Z,99.90
2018-08-11T01:42:26.371Z,99.90
2018-08-11T01:45:00.169Z,99.90
2018-08-11T01:47:31.750Z,99.90
2018-08-11T01:50:05.943Z,99.90
2018-08-11T01:52:40.027Z,99.90
2018-08-11T01:55:18.327Z,99.90
2018-08-11T01:57:49.984Z,99.90
2018-08-11T02:00:24.386Z,99.90
2018-08-11T02:02:54.593Z,99.90
2018-08-11T02:05:32.101Z,99.90
2018-08-11T02:08:12.000Z,99.90
2018-08-11T02:10:48.916Z,99.90
2018-08-11T02:13:24.012Z,99.90
2018-08-11T02:16:00.564Z,99.90
2018-08-11T02:18:35.356Z,99.90
2018-08-11T02:21:10.788Z,99.90
2018-08-11T02:23:40.398Z,99.90
2018-08-11T02:26:11.799Z,99.90
2018-08-11T02:28:44.306Z,99.90
2018-08-11T02:38:20.479Z,99.90
2018-08-11T02:41:01.426Z,99.90
2018-08-11T02:43:34.096Z,99.90
2018-08-11T02:46:11.720Z,99.90
2018-08-11T02:48:43.352Z,99.90
2018-08-11T02:51:15.199Z,99.90
2018-08-11T02:53:46.333Z,99.90
2018-08-11T02:56:18.205Z,99.90
2018-08-11T02:58:48.423Z,99.90
2018-08-11T03:01:20.351Z,99.90
2018-08-11T03:03:51.264Z,99.90
2018-08-11T03:06:25.856Z,99.90
2018-08-11T03:09:00.666Z,99.90
2018-08-11T03:11:31.350Z,99.90
2018-08-11T03:14:02.737Z,99.90
2018-08-11T03:16:33.337Z,99.90
2018-08-11T03:19:09.708Z,99.90
2018-08-11T03:21:41.279Z,99.90
2018-08-11T03:24:13.081Z,99.90
2018-08-11T03:26:52.288Z,99.90
2018-08-11T03:29:23.957Z,99.90
2018-08-11T03:31:56.399Z,99.90
2018-08-11T03:34:35.290Z,99.90
2018-08-11T03:37:23.121Z,99.90
2018-08-11T03:40:00.171Z,99.90
2018-08-11T03:42:30.464Z,99.90
2018-08-11T03:47:45.860Z,99.90
2018-08-11T03:50:17.277Z,99.90
2018-08-11T03:52:50.621Z,99.90
2018-08-11T03:55:24.721Z,99.90
2018-08-11T03:57:57.653Z,99.90
2018-08-11T04:00:34.368Z,99.90
2018-08-11T04:03:05.681Z,99.90
2018-08-11T04:05:36.654Z,99.90
2018-08-11T04:08:09.116Z,99.90
2018-08-11T04:10:46.566Z,99.90
2018-08-11T04:13:25.471Z,99.90
2018-08-11T04:15:59.587Z,99.90
2018-08-11T04:21:20.580Z,99.90
2018-08-11T04:23:56.422Z,99.90
2018-08-11T04:26:31.714Z,99.90
2018-08-11T04:31:53.326Z,99.90
2018-08-11T04:34:25.035Z,99.90
2018-08-11T04:36:57.023Z,99.90
2018-08-11T04:46:11.011Z,99.90
2018-08-11T05:12:17.908Z,99.90
2018-08-11T05:15:21.321Z,99.90
2018-08-11T07:02:18.880Z,99.90
2018-08-11T07:33:52.263Z,86.10
2018-08-11T07:52:29.164Z,74.30
2018-08-11T08:34:19.679Z,64.00
2018-08-11T13:27:44.252Z,47.90
2018-08-11T14:02:10.412Z,47.40
2018-08-11T14:10:31.949Z,49.40
2018-08-11T14:16:47.643Z,48.50
2018-08-11T15:32:12.852Z,51.40
2018-08-11T15:35:35.178Z,52.30
2018-08-11T20:27:47.213Z,57.70
2018-08-11T20:53:48.327Z,92.90
2018-08-11T20:56:46.927Z,94.20
2018-08-11T21:06:53.194Z,95.80
2018-08-11T21:09:49.011Z,96.00
2018-08-11T21:15:27.555Z,96.60
2018-08-11T21:24:39.209Z,97.10
2018-08-11T21:30:32.960Z,97.80
2018-08-11T22:07:37.128Z,99.90
2018-08-11T22:13:21.571Z,99.90
2018-08-11T22:29:34.020Z,99.90
2018-08-11T22:51:02.757Z,99.90
2018-08-11T23:03:40.249Z,99.90
2018-08-11T23:06:51.548Z,99.90
2018-08-11T23:09:40.467Z,99.90
2018-08-11T23:23:06.816Z,99.90
2018-08-11T23:40:33.531Z,99.90
2018-08-11T23:49:03.252Z,99.90
2018-08-11T23:52:00.617Z,99.90
2018-08-11T23:54:51.477Z,99.90
2018-08-11T23:57:36.241Z,99.90
